createdAt,value
2019-05-11T00:01:11.651Z,3.73
2019-05-11T00:04:25.167Z,4.00
2019-05-11T00:07:38.916Z,4.13
2019-05-11T00:10:53.037Z,5.60
2019-05-11T00:14:06.747Z,4.87
2019-05-11T00:17:20.256Z,5.37
2019-05-11T00:20:33.771Z,5.00
2019-05-11T00:23:47.264Z,5.23
2019-05-11T00:27:01.049Z,5.07
2019-05-11T00:30:16.555Z,5.17
2019-05-11T00:33:30.377Z,6.63
2019-05-11T00:36:43.883Z,6.43
2019-05-11T00:40:12.053Z,5.83
2019-05-11T00:43:12.896Z,6.33
2019-05-11T00:46:26.990Z,6.70
2019-05-11T00:49:40.585Z,6.37
2019-05-11T00:52:54.169Z,7.57
2019-05-11T00:56:08.071Z,9.00
2019-05-11T00:59:22.247Z,8.70
2019-05-11T01:02:36.018Z,8.53
2019-05-11T01:05:49.649Z,9.23
2019-05-11T01:09:06.558Z,11.90
2019-05-11T01:12:20.062Z,13.23
2019-05-11T01:15:33.876Z,14.67
2019-05-11T01:18:47.389Z,15.83
2019-05-11T01:22:01.468Z,12.90
2019-05-11T01:25:15.075Z,13.00
2019-05-11T01:28:28.625Z,14.57
2019-05-11T01:31:42.099Z,15.33
2019-05-11T01:34:55.587Z,9.33
2019-05-11T01:38:09.074Z,8.77
2019-05-11T01:41:22.680Z,7.57
2019-05-11T01:44:36.164Z,7.67
2019-05-11T01:47:49.759Z,6.83
2019-05-11T01:51:03.351Z,6.23
2019-05-11T01:54:16.827Z,6.10
2019-05-11T01:57:30.335Z,6.63
2019-05-11T02:00:44.180Z,6.63
2019-05-11T02:03:58.226Z,5.60
2019-05-11T02:07:11.818Z,5.70
2019-05-11T02:10:25.434Z,7.83
2019-05-11T02:13:38.898Z,9.33
2019-05-11T02:16:52.493Z,10.20
2019-05-11T02:20:06.166Z,8.63
2019-05-11T02:23:19.647Z,7.07
2019-05-11T02:26:33.120Z,6.93
2019-05-11T02:29:46.940Z,6.60
2019-05-11T02:33:00.471Z,8.13
2019-05-11T02:36:14.267Z,9.37
2019-05-11T02:39:27.771Z,11.37
2019-05-11T02:42:41.359Z,9.83
2019-05-11T02:45:54.843Z,10.10
2019-05-11T02:49:08.306Z,12.57
2019-05-11T02:52:22.998Z,11.43
2019-05-11T02:55:36.737Z,11.00
2019-05-11T02:58:50.567Z,6.20
2019-05-11T03:02:04.149Z,4.73
2019-05-11T03:05:17.625Z,5.23
2019-05-11T03:08:31.508Z,7.00
2019-05-11T03:11:54.875Z,5.90
2019-05-11T03:15:00.368Z,5.33
2019-05-11T03:18:13.871Z,5.77
2019-05-11T03:21:27.557Z,6.30
2019-05-11T03:24:41.026Z,7.87
2019-05-11T03:27:55.006Z,7.50
2019-05-11T03:31:08.785Z,6.07
2019-05-11T03:34:22.559Z,6.10
2019-05-11T03:37:36.762Z,6.40
2019-05-11T03:40:50.536Z,6.97
2019-05-11T03:44:04.217Z,7.13
2019-05-11T03:47:17.971Z,6.43
2019-05-11T03:50:31.471Z,4.83
2019-05-11T03:53:44.952Z,6.43
2019-05-11T03:56:58.811Z,7.63
2019-05-11T04:00:12.920Z,6.77
2019-05-11T04:03:26.391Z,9.50
2019-05-11T04:06:40.106Z,11.60
2019-05-11T04:09:53.963Z,10.77
2019-05-11T04:13:07.524Z,12.33
2019-05-11T04:16:21.007Z,13.33
2019-05-11T04:19:34.507Z,11.63
2019-05-11T04:22:47.994Z,13.23
2019-05-11T04:26:01.583Z,8.13
2019-05-11T04:29:15.068Z,8.40
2019-05-11T04:32:28.554Z,9.33
2019-05-11T04:35:42.044Z,8.10
2019-05-11T04:38:55.520Z,8.83
2019-05-11T04:42:09.117Z,8.93
2019-05-11T04:45:23.002Z,9.60
2019-05-11T04:48:36.458Z,8.83
2019-05-11T04:51:49.941Z,9.77
2019-05-11T04:55:03.684Z,6.90
2019-05-11T04:58:17.158Z,27.87
2019-05-11T05:01:30.875Z,18.50
2019-05-11T05:04:44.467Z,9.03
2019-05-11T05:08:09.078Z,7.90
2019-05-11T05:11:13.654Z,7.27
2019-05-11T05:16:35.540Z,6.13
2019-05-11T05:19:49.028Z,5.93
2019-05-11T05:23:02.507Z,6.73
2019-05-11T05:26:16.201Z,7.40
2019-05-11T05:29:29.796Z,6.43
2019-05-11T05:32:43.578Z,5.80
2019-05-11T05:35:57.070Z,5.40
2019-05-11T05:39:11.014Z,6.37
2019-05-11T05:42:24.947Z,5.93
2019-05-11T05:45:38.755Z,6.67
2019-05-11T05:48:52.464Z,8.80
2019-05-11T05:52:06.308Z,8.63
2019-05-11T05:55:20.247Z,8.53
2019-05-11T05:58:33.881Z,7.00
2019-05-11T06:01:48.064Z,6.13
2019-05-11T06:05:01.631Z,6.77
2019-05-11T06:08:15.487Z,5.50
2019-05-11T06:11:28.966Z,6.30
2019-05-11T06:14:42.473Z,5.20
2019-05-11T06:17:59.913Z,6.07
2019-05-11T06:21:11.489Z,6.20
2019-05-11T06:24:24.969Z,4.30
2019-05-11T06:27:38.455Z,6.33
2019-05-11T06:30:52.318Z,7.50
2019-05-11T06:34:06.161Z,8.33
2019-05-11T06:37:19.656Z,7.90
2019-05-11T06:40:33.130Z,7.83
2019-05-11T06:44:00.756Z,6.90
2019-05-11T06:47:02.448Z,6.73
2019-05-11T06:50:16.238Z,6.47
2019-05-11T06:53:29.986Z,6.00
2019-05-11T06:56:43.488Z,7.90
2019-05-11T06:59:57.271Z,15.37
2019-05-11T07:03:11.122Z,13.23
2019-05-11T07:06:28.203Z,6.30
2019-05-11T07:09:40.000Z,4.00
2019-05-11T07:12:54.323Z,2.60
2019-05-11T07:16:08.103Z,2.47
2019-05-11T07:19:21.932Z,2.30
2019-05-11T07:22:36.384Z,2.20
2019-05-11T07:25:50.526Z,2.37
2019-05-11T07:29:04.720Z,1.87
2019-05-11T07:32:24.963Z,1.50
2019-05-11T07:35:35.105Z,1.60
2019-05-11T07:38:48.865Z,1.53
2019-05-11T07:42:02.774Z,1.67
2019-05-11T07:45:18.023Z,1.90
2019-05-11T07:48:31.788Z,1.70
2019-05-11T07:51:48.148Z,1.87
2019-05-11T07:55:01.985Z,2.50
2019-05-11T07:58:15.613Z,4.97
2019-05-11T08:01:29.182Z,1.60
2019-05-11T08:04:42.691Z,12.47
2019-05-11T08:07:56.205Z,4.87
2019-05-11T08:11:10.217Z,2.10
2019-05-11T08:14:23.844Z,1.60
2019-05-11T08:17:38.188Z,1.70
2019-05-11T08:20:51.818Z,2.07
2019-05-11T08:24:05.730Z,1.60
2019-05-11T08:27:19.537Z,1.73
2019-05-11T08:30:33.111Z,1.70
2019-05-11T08:33:47.982Z,1.60
2019-05-11T08:37:01.780Z,1.30
2019-05-11T08:40:18.308Z,1.10
2019-05-11T08:43:32.083Z,5.17
2019-05-11T08:46:47.789Z,1.00
2019-05-11T08:50:01.160Z,0.70
2019-05-11T08:53:15.121Z,1.03
2019-05-11T08:56:29.083Z,1.20
2019-05-11T08:59:43.435Z,2.30
2019-05-11T09:02:58.274Z,0.97
2019-05-11T09:06:12.216Z,0.80
2019-05-11T09:09:28.558Z,1.03
2019-05-11T09:12:42.291Z,0.93
2019-05-11T09:15:56.063Z,18.97
2019-05-11T09:19:09.716Z,10.50
2019-05-11T09:22:23.475Z,3.80
2019-05-11T09:25:38.482Z,17.90
2019-05-11T09:28:52.475Z,0.93
2019-05-11T09:32:18.710Z,1.20
2019-05-11T09:35:46.653Z,1.20
2019-05-11T09:38:49.232Z,5.07
2019-05-11T09:42:02.951Z,4.07
2019-05-11T09:45:18.751Z,1.43
2019-05-11T09:48:32.850Z,1.37
2019-05-11T09:51:48.363Z,1.20
2019-05-11T09:55:02.083Z,1.53
2019-05-11T09:58:19.577Z,1.40
2019-05-11T10:01:32.718Z,1.60
2019-05-11T10:04:48.435Z,1.47
2019-05-11T10:08:02.202Z,1.40
2019-05-11T10:11:18.721Z,1.13
2019-05-11T10:14:32.006Z,1.20
2019-05-11T10:17:48.141Z,9.20
2019-05-11T10:21:01.260Z,1.90
2019-05-11T10:24:17.616Z,1.03
2019-05-11T10:27:31.106Z,2.23
2019-05-11T10:30:44.656Z,1.60
2019-05-11T10:33:58.448Z,0.90
2019-05-11T10:37:12.504Z,1.03
2019-05-11T10:40:28.166Z,1.13
2019-05-11T10:43:42.305Z,1.00
2019-05-11T10:46:58.690Z,1.03
2019-05-11T10:50:12.185Z,1.60
2019-05-11T10:53:27.859Z,1.70
2019-05-11T10:56:41.306Z,1.33
2019-05-11T10:59:57.819Z,2.17
2019-05-11T11:03:11.183Z,1.60
2019-05-11T11:06:28.005Z,2.97
2019-05-11T11:09:41.149Z,2.03
2019-05-11T11:12:54.622Z,2.27
2019-05-11T11:16:08.511Z,1.50
2019-05-11T11:19:22.557Z,1.60
2019-05-11T11:22:41.288Z,2.90
2019-05-11T11:25:51.719Z,1.00
2019-05-11T11:29:05.551Z,1.17
2019-05-11T11:32:19.176Z,1.40
2019-05-11T11:35:33.086Z,0.80
2019-05-11T11:38:47.772Z,1.50
2019-05-11T11:42:02.154Z,0.90
2019-05-11T11:45:18.117Z,1.10
2019-05-11T11:48:31.374Z,1.20
2019-05-11T11:51:45.198Z,1.90
2019-05-11T11:54:58.774Z,1.30
2019-05-11T11:58:12.623Z,2.87
2019-05-11T12:01:28.113Z,2.03
2019-05-11T12:04:41.989Z,8.10
2019-05-11T12:07:57.924Z,5.33
2019-05-11T12:11:11.981Z,2.90
2019-05-11T12:16:36.066Z,1.80
2019-05-11T12:19:49.593Z,2.10
2019-05-11T12:23:03.065Z,1.43
2019-05-11T12:26:17.790Z,1.80
2019-05-11T12:29:32.434Z,1.20
2019-05-11T12:32:48.988Z,1.53
2019-05-11T12:36:03.280Z,2.77
2019-05-11T12:39:19.078Z,2.10
2019-05-11T12:42:32.905Z,1.80
2019-05-11T12:45:48.175Z,3.27
2019-05-11T12:49:02.637Z,3.80
2019-05-11T12:52:18.546Z,1.53
2019-05-11T12:55:31.963Z,1.57
2019-05-11T12:58:46.234Z,1.30
2019-05-11T13:02:00.022Z,1.90
2019-05-11T13:05:13.722Z,1.07
2019-05-11T13:08:27.816Z,1.30
2019-05-11T13:11:41.741Z,1.20
2019-05-11T13:14:57.886Z,1.30
2019-05-11T13:18:11.495Z,1.37
2019-05-11T13:21:25.116Z,10.27
2019-05-11T13:24:38.723Z,1.87
2019-05-11T13:27:52.515Z,2.40
2019-05-11T13:31:08.211Z,2.17
2019-05-11T13:34:22.370Z,1.57
2019-05-11T13:37:38.572Z,1.70
2019-05-11T13:40:52.342Z,2.30
2019-05-11T13:44:07.791Z,1.90
2019-05-11T13:47:21.289Z,3.30
2019-05-11T13:50:34.752Z,4.23
2019-05-11T13:53:48.461Z,3.40
2019-05-11T13:57:02.324Z,2.20
2019-05-11T14:00:17.662Z,1.87
2019-05-11T14:03:31.646Z,2.20
2019-05-11T14:06:45.528Z,2.03
2019-05-11T14:09:59.575Z,1.70
2019-05-11T14:13:13.661Z,6.43
2019-05-11T14:16:27.895Z,16.80
2019-05-11T14:19:41.611Z,1.90
2019-05-11T14:22:55.179Z,1.63
2019-05-11T14:26:08.692Z,2.30
2019-05-11T14:29:23.214Z,1.87
2019-05-11T14:32:38.873Z,3.90
2019-05-11T14:35:53.068Z,1.67
2019-05-11T14:39:08.343Z,1.30
2019-05-11T14:42:22.659Z,1.20
2019-05-11T14:45:38.048Z,1.10
2019-05-11T14:48:51.552Z,1.87
2019-05-11T14:52:05.026Z,1.20
2019-05-11T14:55:18.773Z,1.33
2019-05-11T14:58:32.351Z,1.40
2019-05-11T15:01:48.773Z,1.50
2019-05-11T15:05:02.214Z,1.77
2019-05-11T15:08:18.010Z,1.70
2019-05-11T15:11:31.913Z,1.90
2019-05-11T15:14:45.492Z,2.13
2019-05-11T15:17:58.981Z,1.50
2019-05-11T15:21:12.509Z,1.83
2019-05-11T15:24:28.642Z,2.40
2019-05-11T15:27:41.711Z,2.00
2019-05-11T15:30:55.520Z,2.70
2019-05-11T15:34:09.027Z,2.00
2019-05-11T15:37:22.498Z,2.07
2019-05-11T15:40:38.125Z,3.07
2019-05-11T15:43:51.535Z,2.17
2019-05-11T15:47:07.612Z,2.10
2019-05-11T15:50:20.835Z,2.63
2019-05-11T15:53:54.209Z,4.03
2019-05-11T15:57:08.486Z,2.93
2019-05-11T16:00:23.146Z,3.40
2019-05-11T16:03:37.245Z,5.60
2019-05-11T16:06:51.026Z,3.60
2019-05-11T16:10:07.936Z,3.40
2019-05-11T16:13:21.247Z,4.27
2019-05-11T16:16:35.248Z,4.23
2019-05-11T16:19:49.114Z,3.93
2019-05-11T16:23:03.180Z,4.20
2019-05-11T16:26:17.735Z,4.87
2019-05-11T16:29:31.658Z,5.10
2019-05-11T16:32:47.846Z,5.63
2019-05-11T16:36:01.625Z,6.27
2019-05-11T16:39:15.259Z,6.27
2019-05-11T16:42:30.636Z,7.40
2019-05-11T16:45:44.639Z,9.90
2019-05-11T16:48:58.678Z,11.03
2019-05-11T16:52:13.444Z,11.37
2019-05-11T16:55:29.293Z,13.60
2019-05-11T16:58:42.939Z,13.87
2019-05-11T17:01:58.631Z,12.90
2019-05-11T17:05:25.250Z,13.40
2019-05-11T17:08:28.526Z,14.23
2019-05-11T17:11:42.362Z,15.03
2019-05-11T17:14:58.476Z,18.60
2019-05-11T17:18:12.437Z,15.17
2019-05-11T17:21:29.381Z,16.27
2019-05-11T17:24:41.912Z,16.83
2019-05-11T17:27:55.898Z,23.33
2019-05-11T17:31:09.517Z,20.97
2019-05-11T17:34:23.649Z,20.27
2019-05-11T17:37:38.069Z,23.53
2019-05-11T17:40:51.987Z,21.30
2019-05-11T17:44:08.042Z,19.00
2019-05-11T17:47:23.713Z,19.20
2019-05-11T17:50:38.350Z,22.23
2019-05-11T17:53:52.262Z,20.60
2019-05-11T17:57:06.101Z,23.13
2019-05-11T18:00:20.466Z,22.43
2019-05-11T18:03:34.050Z,23.53
2019-05-11T18:06:47.962Z,21.40
2019-05-11T18:10:01.684Z,24.67
2019-05-11T18:13:15.591Z,23.43
2019-05-11T18:16:29.592Z,23.07
2019-05-11T18:19:43.336Z,23.73
2019-05-11T18:22:58.202Z,28.53
2019-05-11T18:26:11.979Z,28.23
2019-05-11T18:29:28.623Z,33.37
2019-05-11T18:32:42.894Z,52.43
2019-05-11T18:35:58.486Z,64.93
2019-05-11T18:39:13.930Z,26.70
2019-05-11T18:42:29.251Z,25.40
2019-05-11T18:45:43.582Z,27.20
2019-05-11T18:48:57.832Z,27.17
2019-05-11T18:52:12.777Z,25.37
2019-05-11T18:55:28.063Z,24.50
2019-05-11T18:58:42.030Z,25.70
2019-05-11T19:01:58.503Z,22.37
2019-05-11T19:05:12.341Z,20.13
2019-05-11T19:08:27.971Z,20.57
2019-05-11T19:11:42.815Z,20.63
2019-05-11T19:14:58.661Z,19.00
2019-05-11T19:18:12.101Z,20.03
2019-05-11T19:21:25.694Z,19.47
2019-05-11T19:24:39.462Z,16.20
2019-05-11T19:27:54.100Z,18.40
2019-05-11T19:31:08.312Z,15.90
2019-05-11T19:34:22.982Z,15.80
2019-05-11T19:37:38.531Z,15.13
2019-05-11T19:40:52.657Z,14.80
2019-05-11T19:44:08.405Z,16.00
2019-05-11T19:47:21.922Z,15.97
2019-05-11T19:50:38.210Z,17.83
2019-05-11T19:53:51.560Z,16.73
2019-05-11T19:57:05.494Z,21.70
2019-05-11T20:00:19.490Z,22.00
2019-05-11T20:03:32.996Z,18.27
2019-05-11T20:06:47.963Z,20.13
2019-05-11T20:10:02.244Z,52.13
2019-05-11T20:13:17.962Z,26.13
2019-05-11T20:16:32.005Z,91.10
2019-05-11T20:19:45.542Z,24.57
2019-05-11T20:22:59.167Z,22.33
2019-05-11T20:26:13.575Z,20.77
2019-05-11T20:29:27.777Z,19.13
2019-05-11T20:32:41.754Z,19.73
2019-05-11T20:35:57.954Z,21.73
2019-05-11T20:39:11.399Z,19.40
2019-05-11T20:42:25.242Z,20.07
2019-05-11T20:45:39.366Z,19.67
2019-05-11T20:48:53.164Z,19.00
2019-05-11T20:52:08.705Z,20.47
2019-05-11T20:55:22.375Z,19.87
2019-05-11T20:58:55.214Z,20.10
2019-05-11T21:02:09.382Z,19.50
2019-05-11T21:05:23.541Z,19.97
2019-05-11T21:08:38.616Z,18.43
2019-05-11T21:11:52.251Z,21.53
2019-05-11T21:16:38.621Z,30.03
2019-05-11T21:19:52.122Z,20.33
2019-05-11T21:23:08.021Z,20.33
2019-05-11T21:26:21.622Z,16.73
2019-05-11T21:29:35.119Z,19.33
2019-05-11T21:32:49.179Z,23.70
2019-05-11T21:36:03.190Z,21.30
2019-05-11T21:39:16.723Z,21.37
2019-05-11T21:42:30.585Z,24.83
2019-05-11T21:45:44.091Z,17.20
2019-05-11T21:48:58.351Z,14.10
2019-05-11T21:52:11.949Z,20.30
2019-05-11T21:55:25.462Z,20.93
2019-05-11T21:58:38.987Z,27.70
2019-05-11T22:01:53.439Z,29.63
2019-05-11T22:05:07.973Z,25.90
2019-05-11T22:08:21.766Z,20.30
2019-05-11T22:11:37.917Z,19.37
2019-05-11T22:14:51.114Z,17.77
2019-05-11T22:18:04.713Z,27.03
2019-05-11T22:21:18.846Z,22.47
2019-05-11T22:24:32.810Z,24.27
2019-05-11T22:27:48.727Z,18.27
2019-05-11T22:31:02.397Z,22.77
2019-05-11T22:34:17.788Z,31.23
2019-05-11T22:37:31.325Z,22.27
2019-05-11T22:40:44.940Z,20.40
2019-05-11T22:43:58.684Z,18.73
2019-05-11T22:47:12.290Z,18.40
2019-05-11T22:50:25.803Z,18.30
2019-05-11T22:53:44.710Z,17.37
2019-05-11T22:56:54.789Z,25.10
2019-05-11T23:00:09.632Z,36.97
2019-05-11T23:03:23.180Z,24.37
2019-05-11T23:06:40.313Z,19.97
2019-05-11T23:09:52.487Z,20.40
2019-05-11T23:13:08.276Z,17.50
2019-05-11T23:16:22.090Z,18.17
2019-05-11T23:19:38.055Z,18.00
2019-05-11T23:22:57.520Z,20.77
2019-05-11T23:26:08.569Z,19.43
2019-05-11T23:29:22.059Z,18.37
2019-05-11T23:32:35.641Z,15.30
2019-05-11T23:35:49.190Z,15.30
2019-05-11T23:39:05.165Z,16.10
2019-05-11T23:42:18.661Z,18.03
2019-05-11T23:45:32.238Z,18.67
2019-05-11T23:48:45.747Z,19.07
2019-05-11T23:51:59.564Z,15.90
2019-05-11T23:55:13.248Z,16.77
2019-05-11T23:58:28.064Z,17.77
